createdAt,value
2018-05-09T00:01:02.647Z,9.47
2018-05-09T00:03:30.184Z,5.93
2018-05-09T00:05:57.706Z,4.90
2018-05-09T00:08:25.264Z,15.93
2018-05-09T00:10:53.271Z,11.30
2018-05-09T00:13:20.803Z,10.37
2018-05-09T00:15:48.331Z,8.27
2018-05-09T00:18:16.198Z,6.80
2018-05-09T00:20:43.722Z,7.17
2018-05-09T00:23:11.251Z,8.47
2018-05-09T00:25:38.820Z,6.50
2018-05-09T00:28:06.341Z,8.10
2018-05-09T00:30:33.866Z,7.03
2018-05-09T00:33:01.415Z,8.63
2018-05-09T00:35:28.971Z,7.57
2018-05-09T00:37:56.628Z,8.67
2018-05-09T00:40:24.168Z,11.53
2018-05-09T00:42:51.693Z,5.90
2018-05-09T00:45:19.352Z,8.20
2018-05-09T00:47:46.882Z,8.57
2018-05-09T00:50:14.477Z,6.90
2018-05-09T00:52:41.978Z,7.33
2018-05-09T00:55:09.507Z,12.93
2018-05-09T00:57:37.263Z,9.37
2018-05-09T01:00:04.809Z,8.10
2018-05-09T01:02:32.337Z,7.83
2018-05-09T01:04:59.881Z,10.57
2018-05-09T01:07:28.210Z,9.77
2018-05-09T01:09:55.790Z,8.30
2018-05-09T01:12:23.317Z,7.17
2018-05-09T01:14:50.839Z,14.03
2018-05-09T01:17:18.391Z,9.80
2018-05-09T01:19:46.344Z,9.10
2018-05-09T01:22:13.866Z,12.20
2018-05-09T01:24:41.418Z,11.33
2018-05-09T01:27:08.987Z,11.77
2018-05-09T01:29:36.513Z,7.20
2018-05-09T01:32:04.075Z,16.93
2018-05-09T01:34:31.626Z,12.27
2018-05-09T01:36:59.370Z,10.03
2018-05-09T01:39:26.904Z,9.33
2018-05-09T01:41:54.437Z,7.20
2018-05-09T01:44:21.977Z,11.70
2018-05-09T01:46:49.538Z,8.70
2018-05-09T01:49:17.236Z,8.47
2018-05-09T01:51:44.753Z,9.97
2018-05-09T01:54:12.279Z,11.63
2018-05-09T01:56:40.052Z,10.40
2018-05-09T01:59:07.578Z,9.00
2018-05-09T02:01:35.103Z,9.63
2018-05-09T02:04:02.650Z,12.20
2018-05-09T02:06:30.194Z,11.80
2018-05-09T02:08:57.727Z,9.57
2018-05-09T02:11:25.323Z,11.70
2018-05-09T02:13:52.864Z,15.07
2018-05-09T02:16:20.383Z,9.37
2018-05-09T02:18:47.928Z,12.40
2018-05-09T02:21:15.454Z,17.23
2018-05-09T02:23:43.003Z,12.70
2018-05-09T02:26:10.554Z,10.30
2018-05-09T02:28:38.077Z,10.23
2018-05-09T02:31:05.851Z,19.90
2018-05-09T02:33:33.332Z,14.00
2018-05-09T02:36:00.860Z,10.40
2018-05-09T02:38:28.550Z,10.57
2018-05-09T02:40:56.088Z,10.63
2018-05-09T02:43:23.633Z,10.90
2018-05-09T02:45:51.192Z,13.87
2018-05-09T02:48:18.758Z,15.70
2018-05-09T02:50:46.287Z,10.77
2018-05-09T02:53:13.839Z,13.17
2018-05-09T02:55:41.364Z,11.30
2018-05-09T02:58:08.914Z,12.17
2018-05-09T03:00:36.444Z,11.97
2018-05-09T03:03:04.114Z,12.43
2018-05-09T03:05:31.644Z,11.23
2018-05-09T03:07:59.166Z,15.90
2018-05-09T03:10:27.147Z,11.33
2018-05-09T03:12:54.684Z,14.80
2018-05-09T03:15:22.211Z,12.67
2018-05-09T03:17:49.815Z,11.87
2018-05-09T03:20:17.350Z,12.30
2018-05-09T03:22:44.883Z,17.80
2018-05-09T03:25:12.439Z,11.70
2018-05-09T03:27:40.016Z,12.50
2018-05-09T03:30:07.576Z,11.63
2018-05-09T03:32:35.111Z,13.10
2018-05-09T03:35:02.703Z,14.83
2018-05-09T03:37:30.327Z,13.63
2018-05-09T03:39:57.794Z,15.30
2018-05-09T03:42:25.340Z,12.80
2018-05-09T03:44:52.886Z,21.17
2018-05-09T03:47:20.432Z,18.60
2018-05-09T03:49:47.964Z,17.97
2018-05-09T03:52:15.519Z,15.30
2018-05-09T03:54:43.108Z,17.03
2018-05-09T03:57:10.640Z,14.63
2018-05-09T03:59:38.184Z,16.43
2018-05-09T04:02:17.872Z,17.40
2018-05-09T04:04:57.187Z,15.10
2018-05-09T04:07:37.169Z,17.40
2018-05-09T04:10:04.704Z,20.80
2018-05-09T04:12:32.233Z,17.23
2018-05-09T04:15:00.202Z,16.27
2018-05-09T04:17:27.737Z,13.53
2018-05-09T04:19:55.266Z,17.40
2018-05-09T04:22:23.021Z,15.60
2018-05-09T04:24:50.579Z,18.63
2018-05-09T04:27:18.102Z,16.17
2018-05-09T04:29:45.663Z,16.00
2018-05-09T04:32:13.218Z,14.07
2018-05-09T04:34:41.200Z,19.00
2018-05-09T04:37:08.745Z,13.40
2018-05-09T04:39:36.285Z,16.10
2018-05-09T04:42:03.865Z,14.20
2018-05-09T04:44:31.398Z,13.30
2018-05-09T04:46:59.068Z,12.77
2018-05-09T04:49:26.692Z,18.40
2018-05-09T04:51:54.220Z,16.00
2018-05-09T04:54:21.772Z,20.83
2018-05-09T04:56:49.304Z,18.33
2018-05-09T04:59:16.850Z,15.73
2018-05-09T05:01:44.403Z,25.30
2018-05-09T05:04:11.927Z,13.60
2018-05-09T05:06:39.483Z,17.80
2018-05-09T05:09:07.323Z,14.90
2018-05-09T05:11:34.852Z,16.87
2018-05-09T05:14:02.398Z,22.33
2018-05-09T05:16:29.960Z,12.47
2018-05-09T05:18:57.486Z,16.67
2018-05-09T05:21:25.071Z,18.30
2018-05-09T05:23:52.601Z,12.07
2018-05-09T05:26:20.221Z,17.73
2018-05-09T05:28:47.906Z,13.93
2018-05-09T05:31:15.428Z,12.60
2018-05-09T05:33:42.955Z,13.43
2018-05-09T05:36:10.532Z,15.53
2018-05-09T05:38:38.055Z,13.50
2018-05-09T05:41:05.596Z,13.23
2018-05-09T05:43:33.148Z,11.80
2018-05-09T05:46:00.670Z,11.80
2018-05-09T05:48:28.396Z,10.77
2018-05-09T05:50:55.923Z,10.33
2018-05-09T05:53:23.446Z,14.13
2018-05-09T05:55:51.411Z,17.27
2018-05-09T05:58:18.930Z,13.20
2018-05-09T06:00:46.646Z,11.67
2018-05-09T06:03:14.560Z,13.00
2018-05-09T06:05:42.084Z,16.20
2018-05-09T06:08:09.617Z,14.23
2018-05-09T06:10:37.211Z,16.93
2018-05-09T06:13:04.765Z,12.47
2018-05-09T06:15:32.299Z,15.90
2018-05-09T06:17:59.860Z,12.60
2018-05-09T06:20:27.390Z,13.83
2018-05-09T06:22:54.935Z,14.50
2018-05-09T06:25:22.459Z,13.40
2018-05-09T06:27:50.022Z,18.23
2018-05-09T06:30:17.865Z,13.93
2018-05-09T06:32:45.408Z,13.67
2018-05-09T06:35:12.938Z,20.10
2018-05-09T06:37:40.491Z,13.30
2018-05-09T06:40:08.019Z,12.40
2018-05-09T06:42:35.607Z,10.23
2018-05-09T06:45:03.132Z,11.70
2018-05-09T06:47:30.659Z,12.80
2018-05-09T06:49:58.265Z,12.97
2018-05-09T06:52:25.773Z,11.67
2018-05-09T06:54:53.361Z,14.27
2018-05-09T06:57:20.892Z,13.33
2018-05-09T06:59:48.468Z,17.60
2018-05-09T07:02:16.009Z,14.20
2018-05-09T07:04:43.556Z,13.10
2018-05-09T07:07:11.092Z,14.10
2018-05-09T07:09:38.644Z,12.30
2018-05-09T07:12:06.170Z,11.53
2018-05-09T07:14:33.756Z,13.33
2018-05-09T07:17:01.284Z,18.90
2018-05-09T07:19:28.813Z,18.60
2018-05-09T07:21:56.387Z,11.50
2018-05-09T07:24:23.915Z,12.50
2018-05-09T07:26:51.473Z,10.40
2018-05-09T07:29:18.993Z,13.40
2018-05-09T07:31:46.540Z,13.57
2018-05-09T07:34:14.067Z,19.50
2018-05-09T07:36:41.611Z,14.57
2018-05-09T07:39:09.304Z,26.73
2018-05-09T07:41:36.824Z,11.97
2018-05-09T07:44:04.348Z,15.13
2018-05-09T07:46:31.905Z,13.03
2018-05-09T07:48:59.481Z,14.33
2018-05-09T07:51:27.024Z,16.30
2018-05-09T07:53:55.044Z,16.37
2018-05-09T07:56:22.563Z,15.20
2018-05-09T07:58:50.090Z,21.47
2018-05-09T08:01:17.641Z,12.20
2018-05-09T08:03:45.214Z,18.30
2018-05-09T08:06:12.797Z,13.57
2018-05-09T08:08:40.752Z,15.50
2018-05-09T08:11:08.307Z,15.33
2018-05-09T08:13:35.830Z,9.53
2018-05-09T08:16:03.378Z,19.10
2018-05-09T08:18:30.901Z,13.50
2018-05-09T08:20:58.446Z,15.80
2018-05-09T08:23:25.999Z,15.50
2018-05-09T08:25:53.517Z,18.50
2018-05-09T08:28:21.062Z,10.30
2018-05-09T08:30:48.603Z,14.43
2018-05-09T08:33:16.150Z,15.87
2018-05-09T08:35:43.673Z,10.70
2018-05-09T08:38:11.367Z,9.80
2018-05-09T08:40:38.903Z,13.70
2018-05-09T08:43:06.434Z,12.23
2018-05-09T08:45:33.978Z,16.20
2018-05-09T08:48:01.501Z,14.43
2018-05-09T08:50:29.039Z,9.80
2018-05-09T08:52:56.558Z,15.37
2018-05-09T08:55:24.192Z,14.70
2018-05-09T08:57:51.670Z,16.63
2018-05-09T09:00:19.196Z,14.60
2018-05-09T09:02:47.096Z,12.57
2018-05-09T09:05:14.626Z,13.27
2018-05-09T09:07:42.147Z,16.77
2018-05-09T09:10:09.742Z,14.80
2018-05-09T09:12:37.266Z,18.33
2018-05-09T09:15:04.808Z,12.47
2018-05-09T09:17:32.395Z,17.83
2018-05-09T09:19:59.939Z,17.30
2018-05-09T09:22:27.476Z,15.90
2018-05-09T09:24:55.025Z,28.33
2018-05-09T09:27:22.560Z,12.80
2018-05-09T09:29:50.113Z,15.10
2018-05-09T09:32:17.697Z,19.03
2018-05-09T09:34:45.323Z,16.37
2018-05-09T09:37:12.861Z,19.47
2018-05-09T09:39:40.410Z,18.13
2018-05-09T09:42:07.946Z,14.03
2018-05-09T09:44:35.537Z,14.67
2018-05-09T09:47:03.059Z,10.93
2018-05-09T09:49:30.592Z,18.77
2018-05-09T09:51:58.571Z,22.67
2018-05-09T09:54:26.103Z,15.33
2018-05-09T09:56:53.632Z,14.87
2018-05-09T09:59:21.204Z,28.63
2018-05-09T10:01:48.732Z,9.80
2018-05-09T10:04:16.250Z,15.47
2018-05-09T10:06:43.815Z,12.43
2018-05-09T10:09:11.340Z,13.77
2018-05-09T10:11:38.893Z,15.63
2018-05-09T10:14:06.419Z,17.60
2018-05-09T10:16:33.968Z,11.53
2018-05-09T10:19:01.501Z,10.67
2018-05-09T10:21:29.248Z,12.53
2018-05-09T10:23:56.771Z,16.27
2018-05-09T10:26:24.304Z,13.13
2018-05-09T10:28:52.062Z,11.93
2018-05-09T10:31:19.625Z,11.33
2018-05-09T10:33:47.168Z,14.07
2018-05-09T10:36:14.731Z,11.83
2018-05-09T10:38:42.244Z,7.90
2018-05-09T10:41:09.795Z,15.00
2018-05-09T10:43:37.321Z,15.43
2018-05-09T10:46:05.084Z,15.23
2018-05-09T10:48:32.624Z,8.80
2018-05-09T10:51:00.168Z,7.00
2018-05-09T10:53:27.714Z,5.87
2018-05-09T10:55:55.264Z,7.53
2018-05-09T10:58:22.824Z,6.30
2018-05-09T11:00:50.341Z,7.37
2018-05-09T11:03:17.858Z,6.80
2018-05-09T11:05:45.401Z,4.63
2018-05-09T11:08:12.927Z,6.13
2018-05-09T11:10:40.463Z,7.73
2018-05-09T11:13:07.987Z,6.47
2018-05-09T11:15:35.531Z,7.10
2018-05-09T11:18:03.051Z,9.70
2018-05-09T11:20:30.606Z,6.43
2018-05-09T11:22:58.124Z,11.20
2018-05-09T11:25:25.795Z,8.37
2018-05-09T11:27:53.319Z,8.10
2018-05-09T11:30:20.849Z,12.70
2018-05-09T11:32:48.411Z,6.00
2018-05-09T11:35:15.925Z,6.00
2018-05-09T11:37:43.455Z,5.47
2018-05-09T11:40:10.988Z,4.93
2018-05-09T11:42:38.527Z,6.00
2018-05-09T11:45:06.058Z,6.00
2018-05-09T11:47:33.741Z,6.37
2018-05-09T11:50:02.396Z,6.10
2018-05-09T11:52:29.921Z,7.53
2018-05-09T11:54:57.445Z,8.17
2018-05-09T11:57:24.996Z,6.40
2018-05-09T11:59:52.524Z,7.30
2018-05-09T12:02:20.276Z,10.40
2018-05-09T12:04:47.816Z,5.97
2018-05-09T12:07:15.339Z,6.10
2018-05-09T12:09:43.286Z,9.57
2018-05-09T12:12:10.803Z,6.33
2018-05-09T12:14:38.328Z,5.70
2018-05-09T12:17:05.874Z,9.47
2018-05-09T12:19:33.799Z,6.63
2018-05-09T12:22:01.310Z,5.03
2018-05-09T12:24:28.910Z,8.07
2018-05-09T12:26:56.416Z,6.63
2018-05-09T12:29:24.393Z,6.40
2018-05-09T12:31:51.949Z,8.27
2018-05-09T12:34:19.475Z,7.20
2018-05-09T12:36:47.245Z,5.67
2018-05-09T12:39:14.747Z,5.70
2018-05-09T12:41:42.291Z,10.00
2018-05-09T12:44:09.838Z,7.87
2018-05-09T12:46:37.365Z,9.47
2018-05-09T12:49:05.022Z,5.90
2018-05-09T12:51:32.547Z,5.90
2018-05-09T12:54:00.111Z,9.20
2018-05-09T12:56:27.690Z,9.70
2018-05-09T12:58:55.216Z,5.90
2018-05-09T13:01:22.744Z,8.50
2018-05-09T13:03:50.416Z,8.20
2018-05-09T13:06:17.928Z,6.50
2018-05-09T13:08:45.451Z,12.20
2018-05-09T13:11:13.009Z,7.77
2018-05-09T13:13:40.561Z,7.07
2018-05-09T13:16:08.088Z,7.17
2018-05-09T13:18:35.750Z,6.40
2018-05-09T13:21:03.279Z,6.50
2018-05-09T13:23:30.803Z,10.27
2018-05-09T13:25:58.465Z,5.20
2018-05-09T13:28:26.071Z,4.93
2018-05-09T13:30:53.586Z,8.20
2018-05-09T13:33:21.110Z,8.10
2018-05-09T13:35:48.662Z,5.47
2018-05-09T13:38:16.185Z,4.97
2018-05-09T13:40:43.732Z,8.97
2018-05-09T13:43:11.255Z,15.70
2018-05-09T13:45:38.834Z,4.57
2018-05-09T13:48:06.354Z,5.17
2018-05-09T13:50:33.879Z,4.93
2018-05-09T13:53:01.480Z,4.70
2018-05-09T13:55:29.005Z,8.73
2018-05-09T13:57:56.533Z,6.20
2018-05-09T14:00:24.081Z,6.53
2018-05-09T14:02:51.619Z,5.60
2018-05-09T14:05:19.174Z,10.47
2018-05-09T14:07:46.686Z,8.90
2018-05-09T14:10:14.236Z,8.60
2018-05-09T14:12:41.766Z,5.73
2018-05-09T14:15:09.537Z,12.13
2018-05-09T14:17:37.067Z,14.73
2018-05-09T14:20:04.606Z,7.60
2018-05-09T14:22:32.171Z,6.60
2018-05-09T14:24:59.699Z,4.97
2018-05-09T14:27:27.223Z,9.23
2018-05-09T14:29:54.799Z,6.30
2018-05-09T14:32:22.401Z,7.03
2018-05-09T14:34:49.895Z,7.40
2018-05-09T14:37:17.448Z,6.17
2018-05-09T14:39:44.995Z,14.83
2018-05-09T14:42:12.734Z,7.67
2018-05-09T14:44:40.252Z,14.47
2018-05-09T14:47:07.771Z,9.40
2018-05-09T14:49:35.320Z,9.20
2018-05-09T14:52:02.981Z,11.70
2018-05-09T14:54:30.561Z,8.50
2018-05-09T14:56:58.108Z,10.23
2018-05-09T14:59:25.728Z,8.10
2018-05-09T15:01:53.257Z,10.00
2018-05-09T15:04:20.814Z,6.40
2018-05-09T15:06:48.364Z,10.70
2018-05-09T15:09:15.937Z,9.80
2018-05-09T15:11:43.467Z,11.70
2018-05-09T15:14:11.087Z,5.70
2018-05-09T15:16:38.578Z,7.30
2018-05-09T15:19:06.107Z,10.80
2018-05-09T15:21:33.654Z,11.27
2018-05-09T15:24:01.199Z,7.00
2018-05-09T15:26:28.866Z,7.80
2018-05-09T15:28:56.390Z,11.33
2018-05-09T15:31:23.913Z,8.93
2018-05-09T15:33:51.469Z,9.23
2018-05-09T15:36:19.939Z,8.03
2018-05-09T15:38:47.504Z,16.53
2018-05-09T15:41:15.040Z,5.67
2018-05-09T15:43:42.611Z,14.80
2018-05-09T15:46:10.152Z,8.30
2018-05-09T15:48:37.704Z,8.40
2018-05-09T15:51:05.283Z,7.17
2018-05-09T15:53:32.816Z,9.80
2018-05-09T15:56:00.352Z,9.77
2018-05-09T15:58:27.914Z,8.50
2018-05-09T16:00:55.510Z,9.33
2018-05-09T16:03:22.970Z,10.23
2018-05-09T16:05:50.562Z,8.57
2018-05-09T16:08:18.323Z,9.43
2018-05-09T16:10:45.856Z,11.83
2018-05-09T16:13:13.383Z,8.73
2018-05-09T16:15:40.936Z,7.43
2018-05-09T16:18:08.482Z,9.90
2018-05-09T16:20:36.057Z,12.30
2018-05-09T16:23:03.590Z,14.23
2018-05-09T16:25:31.120Z,7.00
2018-05-09T16:27:58.713Z,14.65
2018-05-09T16:30:26.232Z,8.90
2018-05-09T16:32:53.756Z,12.50
2018-05-09T16:35:21.339Z,10.32
2018-05-09T16:37:49.097Z,8.63
2018-05-09T16:40:16.684Z,10.30
2018-05-09T16:42:44.210Z,6.50
2018-05-09T16:45:11.752Z,12.50
2018-05-09T16:47:39.311Z,8.90
2018-05-09T16:50:06.825Z,6.03
2018-05-09T16:52:34.553Z,11.17
2018-05-09T16:55:02.105Z,10.63
2018-05-09T16:57:30.430Z,9.47
2018-05-09T16:59:57.976Z,11.10
2018-05-09T17:02:25.501Z,13.23
2018-05-09T17:04:53.096Z,15.00
2018-05-09T17:07:20.631Z,7.87
2018-05-09T17:09:48.192Z,15.60
2018-05-09T17:12:15.738Z,18.60
2018-05-09T17:14:43.257Z,7.80
2018-05-09T17:17:10.926Z,8.87
2018-05-09T17:19:38.491Z,9.40
2018-05-09T17:22:33.995Z,17.23
2018-05-09T17:25:01.525Z,9.53
2018-05-09T17:27:29.063Z,8.63
2018-05-09T17:29:56.812Z,14.97
2018-05-09T17:32:24.338Z,14.53
2018-05-09T17:34:51.872Z,9.20
2018-05-09T17:37:20.492Z,15.43
2018-05-09T17:39:48.021Z,12.30
2018-05-09T17:42:15.650Z,27.00
2018-05-09T17:44:43.204Z,18.40
2018-05-09T17:47:10.782Z,11.37
2018-05-09T17:49:38.307Z,14.00
2018-05-09T17:52:05.841Z,10.50
2018-05-09T17:54:33.570Z,14.63
2018-05-09T17:57:01.095Z,6.10
2018-05-09T17:59:28.627Z,13.40
2018-05-09T18:01:56.312Z,12.53
2018-05-09T18:04:23.867Z,10.10
2018-05-09T18:06:51.432Z,7.70
2018-05-09T18:09:18.951Z,14.77
2018-05-09T18:11:46.701Z,11.00
2018-05-09T18:14:14.227Z,12.57
2018-05-09T18:16:42.031Z,14.90
2018-05-09T18:19:09.650Z,20.97
2018-05-09T18:21:37.172Z,10.87
2018-05-09T18:24:04.696Z,13.77
2018-05-09T18:26:32.267Z,11.90
2018-05-09T18:28:59.791Z,8.50
2018-05-09T18:31:27.349Z,17.90
2018-05-09T18:33:54.941Z,10.47
2018-05-09T18:36:22.463Z,13.40
2018-05-09T18:38:49.993Z,10.17
2018-05-09T18:41:17.547Z,11.13
2018-05-09T18:43:45.085Z,17.93
2018-05-09T18:46:12.678Z,15.87
2018-05-09T18:48:40.216Z,11.60
2018-05-09T18:51:07.746Z,15.87
2018-05-09T18:53:35.295Z,14.70
2018-05-09T18:56:02.874Z,12.10
2018-05-09T18:58:30.390Z,7.93
2018-05-09T19:00:57.917Z,10.10
2018-05-09T19:03:25.467Z,11.10
2018-05-09T19:05:52.992Z,15.50
2018-05-09T19:08:20.538Z,15.73
2018-05-09T19:10:48.060Z,13.53
2018-05-09T19:13:15.612Z,14.40
2018-05-09T19:15:43.158Z,17.80
2018-05-09T19:18:10.683Z,8.53
2018-05-09T19:20:38.253Z,18.27
2018-05-09T19:23:05.844Z,13.40
2018-05-09T19:25:33.332Z,15.03
2018-05-09T19:28:01.159Z,10.70
2018-05-09T19:30:28.683Z,13.37
2018-05-09T19:32:56.209Z,16.60
2018-05-09T19:35:23.859Z,10.83
2018-05-09T19:37:51.340Z,10.73
2018-05-09T19:40:18.863Z,14.53
2018-05-09T19:42:46.416Z,14.70
2018-05-09T19:45:14.482Z,15.60
2018-05-09T19:47:42.007Z,15.50
2018-05-09T19:50:09.543Z,12.80
2018-05-09T19:52:37.095Z,15.10
2018-05-09T19:55:04.664Z,15.90
2018-05-09T19:57:32.213Z,8.27
2018-05-09T19:59:59.762Z,17.87
2018-05-09T20:02:27.291Z,11.83
2018-05-09T20:04:54.908Z,11.60
2018-05-09T20:07:22.431Z,12.17
2018-05-09T20:09:49.969Z,14.33
2018-05-09T20:12:17.526Z,19.53
2018-05-09T20:14:45.048Z,17.40
2018-05-09T20:17:12.596Z,12.17
2018-05-09T20:19:40.127Z,17.50
2018-05-09T20:22:07.684Z,15.07
2018-05-09T20:24:35.247Z,24.70
2018-05-09T20:27:02.808Z,18.73
2018-05-09T20:29:30.341Z,14.60
2018-05-09T20:32:10.356Z,13.70
2018-05-09T20:34:37.879Z,22.47
2018-05-09T20:37:05.412Z,20.13
2018-05-09T20:39:33.080Z,17.20
2018-05-09T20:42:00.719Z,22.70
2018-05-09T20:44:28.211Z,24.37
2018-05-09T20:46:55.759Z,28.07
2018-05-09T20:49:23.314Z,20.33
2018-05-09T20:51:51.832Z,30.17
2018-05-09T20:54:19.396Z,24.90
2018-05-09T20:56:46.964Z,26.87
2018-05-09T20:59:14.497Z,32.03
2018-05-09T21:01:48.805Z,23.67
2018-05-09T21:04:16.360Z,32.07
2018-05-09T21:06:43.907Z,31.90
2018-05-09T21:09:11.480Z,28.87
2018-05-09T21:11:39.024Z,30.20
2018-05-09T21:14:07.051Z,46.07
2018-05-09T21:16:34.561Z,32.00
2018-05-09T21:19:02.304Z,30.80
2018-05-09T21:21:30.239Z,35.50
2018-05-09T21:23:57.766Z,27.70
2018-05-09T21:26:25.294Z,27.80
2018-05-09T21:28:52.847Z,31.10
2018-05-09T21:31:20.371Z,26.50
2018-05-09T21:33:48.298Z,32.70
2018-05-09T21:36:15.826Z,32.40
2018-05-09T21:38:43.358Z,30.53
2018-05-09T21:41:10.912Z,28.50
2018-05-09T21:43:38.442Z,26.00
2018-05-09T21:46:05.994Z,27.27
2018-05-09T21:48:33.523Z,27.30
2018-05-09T21:51:01.093Z,26.77
2018-05-09T21:53:28.654Z,25.60
2018-05-09T21:55:56.229Z,24.50
2018-05-09T21:58:23.800Z,32.23
2018-05-09T22:00:51.352Z,26.40
2018-05-09T22:03:19.068Z,29.40
2018-05-09T22:05:46.590Z,29.70
2018-05-09T22:08:14.127Z,34.13
2018-05-09T22:10:41.706Z,32.50
2018-05-09T22:13:09.259Z,32.90
2018-05-09T22:15:36.824Z,30.10
2018-05-09T22:18:04.368Z,35.07
2018-05-09T22:20:31.919Z,30.90
2018-05-09T22:22:59.967Z,34.13
2018-05-09T22:25:27.501Z,33.53
2018-05-09T22:27:55.043Z,35.67
2018-05-09T22:30:22.615Z,37.77
2018-05-09T22:32:50.155Z,37.47
2018-05-09T22:35:17.722Z,44.77
2018-05-09T22:37:45.283Z,44.20
2018-05-09T22:40:12.971Z,45.27
2018-05-09T22:42:40.513Z,45.00
2018-05-09T22:45:08.041Z,46.93
2018-05-09T22:47:35.608Z,44.63
2018-05-09T22:50:03.148Z,43.60
2018-05-09T22:52:30.702Z,45.57
2018-05-09T22:54:58.276Z,46.17
2018-05-09T22:57:25.833Z,43.27
2018-05-09T22:59:53.373Z,48.40
2018-05-09T23:02:20.960Z,54.57
2018-05-09T23:04:48.496Z,58.43
2018-05-09T23:07:16.061Z,64.07
2018-05-09T23:09:43.765Z,69.50
2018-05-09T23:12:11.300Z,69.63
2018-05-09T23:14:38.835Z,76.17
2018-05-09T23:17:06.650Z,94.20
2018-05-09T23:19:34.160Z,94.70
2018-05-09T23:22:01.697Z,89.40
2018-05-09T23:24:29.273Z,97.33
2018-05-09T23:26:56.868Z,97.70
2018-05-09T23:29:24.397Z,99.70
2018-05-09T23:31:51.942Z,103.00
2018-05-09T23:34:19.510Z,108.20
2018-05-09T23:36:47.071Z,114.70
2018-05-09T23:39:14.783Z,119.77
2018-05-09T23:41:42.336Z,118.03
2018-05-09T23:44:09.877Z,118.30
2018-05-09T23:46:37.468Z,136.70
2018-05-09T23:49:05.003Z,147.40
2018-05-09T23:51:32.535Z,134.13
2018-05-09T23:54:00.111Z,164.10
2018-05-09T23:56:27.865Z,167.43
2018-05-09T23:58:55.394Z,164.87
